METAR Germany / Deutschland - 23 Oct 2017 - 0948 UTC - RocketRoute WX - rrwx.com
EDDB 230920Z 25010KT 9999 BKN011 10/08 Q1015 BECMG BKN008 EDDW 230920Z 23017KT 9999 -RA BKN010 OVC017 11/09 Q1012 TEMPO SCT010 EDDC 230920Z 29009KT 250V320 9999 BKN015 BKN040 10/07 Q1016 NOSIG EDDL 230920Z AUTO 25011KT //// R23R/P2000N R23L/P2000N // ///////// 12/08 Q1018 NOSIG EDFH 230920Z 27009KT 240V310 9999 SCT003 BKN007 07/06 Q1020 EDDF 230920Z 22010KT 9999 FEW012 SCT045 BKN050 10/07 Q1020 NOSIG EDDH 230920Z 20009KT 6000 RA FEW006 BKN009 BKN013 11/10 Q1012 TEMPO 4000 EDDV 230920Z 24010KT 9999 -RA FEW013 BKN016 11/08 Q1014 NOSIG EDAH 230920Z 26007KT CAVOK 12/08 Q1014 EDSB 230920Z 21011KT 9999 FEW019 BKN055 10/08 Q1022 EDVK 230920Z 25009KT 9999 BKN024 OVC036 10/07 Q1017 EDDK 230920Z 25010KT 9999 FEW020 SCT032 BKN055 11/08 Q1019 NOSIG ETNL 230940Z 19005KT 4000 -DZ BR BKN003 10/09 Q1013 REDZ YLO YLO EDDP 230920Z 24011KT 9999 BKN013 10/08 Q1016 TEMPO 4500 RADZ EDHL 230920Z 20005KT 3900 RA BKN006 11/11 Q1012 EDDM 230920Z 28011KT 9999 FEW013 BKN016 08/05 Q1020 NOSIG EDDG 230920Z 23012KT 9999 SCT019TCU BKN040 11/08 Q1015 NOSIG EDDN 230920Z 27009KT 9999 -RADZ FEW009 BKN012 08/06 Q1019 NOSIG EDLP 230920Z 25012KT 220V290 9999 -DZ BKN016 11/07 Q1016 EDDR 230920Z 27010KT 9999 -RA SCT013 BKN045 10/07 Q1021 NOSIG EDDS 230920Z 27009KT 240V310 9999 BKN019 09/06 Q1021 NOSIG EDXW 230920Z 07012KT 9999 SCT003 BKN006 11/11 Q1011 EDDT 230920Z 23007KT 3200 -DZ BR BKN007 10/09 Q1015 NOSIG

RocketRoute WX - rrwx.com weather for pilots